sensor_id;sensor_type;location;lat;lon;timestamp;P1;durP1;ratioP1;P2;durP2;ratioP2
7195;SDS011;3639;51.308;5.624;2023-07-02T00:01:10;10.03;;;4.27;;
7195;SDS011;3639;51.308;5.624;2023-07-02T00:03:37;9.00;;;4.60;;
7195;SDS011;3639;51.308;5.624;2023-07-02T00:06:03;10.03;;;5.20;;
7195;SDS011;3639;51.308;5.624;2023-07-02T00:08:29;8.83;;;4.80;;
7195;SDS011;3639;51.308;5.624;2023-07-02T00:10:54;12.03;;;4.93;;
7195;SDS011;3639;51.308;5.624;2023-07-02T00:13:20;9.83;;;4.90;;
7195;SDS011;3639;51.308;5.624;2023-07-02T00:15:45;8.13;;;4.60;;
7195;SDS011;3639;51.308;5.624;2023-07-02T00:18:11;9.03;;;4.93;;
7195;SDS011;3639;51.308;5.624;2023-07-02T00:20:41;12.07;;;5.33;;
7195;SDS011;3639;51.308;5.624;2023-07-02T00:23:07;10.47;;;4.57;;
7195;SDS011;3639;51.308;5.624;2023-07-02T00:25:34;9.70;;;5.37;;
7195;SDS011;3639;51.308;5.624;2023-07-02T00:28:03;10.37;;;5.53;;
7195;SDS011;3639;51.308;5.624;2023-07-02T00:30:29;10.40;;;5.20;;
7195;SDS011;3639;51.308;5.624;2023-07-02T00:32:55;13.30;;;5.93;;
7195;SDS011;3639;51.308;5.624;2023-07-02T00:35:21;10.87;;;5.20;;
7195;SDS011;3639;51.308;5.624;2023-07-02T00:37:46;11.37;;;5.97;;
7195;SDS011;3639;51.308;5.624;2023-07-02T00:40:12;15.20;;;6.30;;
7195;SDS011;3639;51.308;5.624;2023-07-02T00:42:38;17.27;;;6.37;;
7195;SDS011;3639;51.308;5.624;2023-07-02T00:45:04;11.50;;;5.63;;
7195;SDS011;3639;51.308;5.624;2023-07-02T00:47:32;15.43;;;6.03;;
7195;SDS011;3639;51.308;5.624;2023-07-02T00:49:59;11.17;;;5.97;;
7195;SDS011;3639;51.308;5.624;2023-07-02T00:52:25;16.43;;;6.07;;
7195;SDS011;3639;51.308;5.624;2023-07-02T00:54:51;13.33;;;6.63;;
7195;SDS011;3639;51.308;5.624;2023-07-02T00:57:16;13.47;;;6.07;;
7195;SDS011;3639;51.308;5.624;2023-07-02T00:59:42;18.63;;;6.80;;
7195;SDS011;3639;51.308;5.624;2023-07-02T01:02:08;10.23;;;5.77;;
7195;SDS011;3639;51.308;5.624;2023-07-02T01:04:34;10.87;;;6.53;;
7195;SDS011;3639;51.308;5.624;2023-07-02T01:06:59;13.13;;;6.60;;
7195;SDS011;3639;51.308;5.624;2023-07-02T01:09:25;17.30;;;8.47;;
7195;SDS011;3639;51.308;5.624;2023-07-02T01:11:58;11.80;;;6.50;;
7195;SDS011;3639;51.308;5.624;2023-07-02T01:14:36;20.90;;;7.47;;
7195;SDS011;3639;51.308;5.624;2023-07-02T01:17:07;15.03;;;6.90;;
7195;SDS011;3639;51.308;5.624;2023-07-02T01:19:47;17.03;;;7.20;;
7195;SDS011;3639;51.308;5.624;2023-07-02T01:22:16;12.80;;;6.93;;
7195;SDS011;3639;51.308;5.624;2023-07-02T01:24:43;14.20;;;7.13;;
7195;SDS011;3639;51.308;5.624;2023-07-02T01:27:09;17.53;;;7.53;;
7195;SDS011;3639;51.308;5.624;2023-07-02T01:29:35;14.13;;;8.20;;
7195;SDS011;3639;51.308;5.624;2023-07-02T01:32:04;14.13;;;7.57;;
7195;SDS011;3639;51.308;5.624;2023-07-02T01:34:30;19.87;;;8.07;;
7195;SDS011;3639;51.308;5.624;2023-07-02T01:36:56;18.63;;;8.03;;
7195;SDS011;3639;51.308;5.624;2023-07-02T01:39:21;17.43;;;8.20;;
7195;SDS011;3639;51.308;5.624;2023-07-02T01:41:53;14.47;;;7.30;;
7195;SDS011;3639;51.308;5.624;2023-07-02T01:44:20;17.73;;;7.80;;
7195;SDS011;3639;51.308;5.624;2023-07-02T01:46:47;18.10;;;8.20;;
7195;SDS011;3639;51.308;5.624;2023-07-02T01:49:17;18.93;;;8.90;;
7195;SDS011;3639;51.308;5.624;2023-07-02T01:51:53;16.57;;;7.97;;
7195;SDS011;3639;51.308;5.624;2023-07-02T01:54:21;19.23;;;8.40;;
7195;SDS011;3639;51.308;5.624;2023-07-02T01:56:48;19.87;;;9.10;;
7195;SDS011;3639;51.308;5.624;2023-07-02T01:59:13;19.50;;;9.40;;
7195;SDS011;3639;51.308;5.624;2023-07-02T02:01:40;17.90;;;8.03;;
7195;SDS011;3639;51.308;5.624;2023-07-02T02:04:06;19.80;;;8.77;;
7195;SDS011;3639;51.308;5.624;2023-07-02T02:06:32;19.23;;;9.10;;
7195;SDS011;3639;51.308;5.624;2023-07-02T02:08:58;17.40;;;9.07;;
7195;SDS011;3639;51.308;5.624;2023-07-02T02:11:24;20.60;;;8.77;;
7195;SDS011;3639;51.308;5.624;2023-07-02T02:13:49;19.77;;;9.07;;
7195;SDS011;3639;51.308;5.624;2023-07-02T02:16:15;17.57;;;8.97;;
7195;SDS011;3639;51.308;5.624;2023-07-02T02:18:41;21.70;;;9.77;;
7195;SDS011;3639;51.308;5.624;2023-07-02T02:21:06;21.07;;;10.03;;
7195;SDS011;3639;51.308;5.624;2023-07-02T02:23:32;21.83;;;10.20;;
7195;SDS011;3639;51.308;5.624;2023-07-02T02:25:58;20.27;;;10.10;;
7195;SDS011;3639;51.308;5.624;2023-07-02T02:28:23;23.63;;;9.83;;
7195;SDS011;3639;51.308;5.624;2023-07-02T02:30:49;21.97;;;8.97;;
7195;SDS011;3639;51.308;5.624;2023-07-02T02:33:14;20.63;;;10.57;;
7195;SDS011;3639;51.308;5.624;2023-07-02T02:35:40;18.77;;;9.37;;
7195;SDS011;3639;51.308;5.624;2023-07-02T02:38:05;22.50;;;11.10;;
7195;SDS011;3639;51.308;5.624;2023-07-02T02:40:31;20.60;;;10.13;;
7195;SDS011;3639;51.308;5.624;2023-07-02T02:42:56;21.27;;;10.93;;
7195;SDS011;3639;51.308;5.624;2023-07-02T02:45:22;23.67;;;10.57;;
7195;SDS011;3639;51.308;5.624;2023-07-02T02:47:48;21.50;;;9.90;;
7195;SDS011;3639;51.308;5.624;2023-07-02T02:50:13;20.20;;;10.63;;
7195;SDS011;3639;51.308;5.624;2023-07-02T02:52:39;21.73;;;10.33;;
7195;SDS011;3639;51.308;5.624;2023-07-02T02:55:05;31.20;;;11.23;;
7195;SDS011;3639;51.308;5.624;2023-07-02T02:57:32;23.43;;;9.83;;
7195;SDS011;3639;51.308;5.624;2023-07-02T02:59:58;20.60;;;10.23;;
7195;SDS011;3639;51.308;5.624;2023-07-02T03:02:24;20.53;;;9.87;;
7195;SDS011;3639;51.308;5.624;2023-07-02T03:04:50;27.40;;;10.93;;
7195;SDS011;3639;51.308;5.624;2023-07-02T03:07:16;24.60;;;12.13;;
7195;SDS011;3639;51.308;5.624;2023-07-02T03:09:42;23.20;;;11.00;;
7195;SDS011;3639;51.308;5.624;2023-07-02T03:12:08;20.03;;;10.10;;
7195;SDS011;3639;51.308;5.624;2023-07-02T03:14:34;26.57;;;11.37;;
7195;SDS011;3639;51.308;5.624;2023-07-02T03:17:00;27.90;;;10.60;;
7195;SDS011;3639;51.308;5.624;2023-07-02T03:19:25;22.57;;;11.93;;
7195;SDS011;3639;51.308;5.624;2023-07-02T03:21:51;26.17;;;10.07;;
7195;SDS011;3639;51.308;5.624;2023-07-02T03:24:17;29.83;;;12.20;;
7195;SDS011;3639;51.308;5.624;2023-07-02T03:26:43;22.43;;;11.47;;
7195;SDS011;3639;51.308;5.624;2023-07-02T03:29:09;23.37;;;10.63;;
7195;SDS011;3639;51.308;5.624;2023-07-02T03:31:35;21.40;;;11.77;;
7195;SDS011;3639;51.308;5.624;2023-07-02T03:34:05;24.33;;;11.43;;
7195;SDS011;3639;51.308;5.624;2023-07-02T03:36:32;24.20;;;10.73;;
7195;SDS011;3639;51.308;5.624;2023-07-02T03:38:58;25.87;;;10.40;;
7195;SDS011;3639;51.308;5.624;2023-07-02T03:41:24;22.43;;;10.17;;
7195;SDS011;3639;51.308;5.624;2023-07-02T03:43:50;24.80;;;10.87;;
7195;SDS011;3639;51.308;5.624;2023-07-02T03:46:15;26.53;;;11.53;;
7195;SDS011;3639;51.308;5.624;2023-07-02T03:48:41;26.33;;;11.53;;
7195;SDS011;3639;51.308;5.624;2023-07-02T03:51:07;19.97;;;10.13;;
7195;SDS011;3639;51.308;5.624;2023-07-02T03:53:32;21.70;;;11.00;;
7195;SDS011;3639;51.308;5.624;2023-07-02T03:55:58;29.60;;;11.93;;
7195;SDS011;3639;51.308;5.624;2023-07-02T03:58:23;24.17;;;12.13;;
7195;SDS011;3639;51.308;5.624;2023-07-02T04:00:49;25.33;;;11.67;;
7195;SDS011;3639;51.308;5.624;2023-07-02T04:03:15;26.20;;;10.57;;
7195;SDS011;3639;51.308;5.624;2023-07-02T04:05:41;23.73;;;11.37;;
7195;SDS011;3639;51.308;5.624;2023-07-02T04:08:07;27.00;;;10.43;;
7195;SDS011;3639;51.308;5.624;2023-07-02T04:10:33;19.90;;;9.70;;
7195;SDS011;3639;51.308;5.624;2023-07-02T04:12:59;26.93;;;12.13;;
7195;SDS011;3639;51.308;5.624;2023-07-02T04:15:25;25.20;;;11.03;;
7195;SDS011;3639;51.308;5.624;2023-07-02T04:17:51;30.37;;;12.70;;
7195;SDS011;3639;51.308;5.624;2023-07-02T04:20:17;23.07;;;11.87;;
7195;SDS011;3639;51.308;5.624;2023-07-02T04:22:44;27.87;;;11.70;;
7195;SDS011;3639;51.308;5.624;2023-07-02T04:25:11;30.10;;;11.80;;
7195;SDS011;3639;51.308;5.624;2023-07-02T04:27:40;28.50;;;11.37;;
7195;SDS011;3639;51.308;5.624;2023-07-02T04:30:06;30.17;;;11.87;;
7195;SDS011;3639;51.308;5.624;2023-07-02T04:32:33;30.00;;;11.93;;
7195;SDS011;3639;51.308;5.624;2023-07-02T04:34:59;25.70;;;11.23;;
7195;SDS011;3639;51.308;5.624;2023-07-02T04:37:24;27.43;;;12.07;;
7195;SDS011;3639;51.308;5.624;2023-07-02T04:39:50;35.03;;;13.73;;
7195;SDS011;3639;51.308;5.624;2023-07-02T04:42:15;23.83;;;10.60;;
7195;SDS011;3639;51.308;5.624;2023-07-02T04:44:41;22.97;;;10.90;;
7195;SDS011;3639;51.308;5.624;2023-07-02T04:47:08;25.53;;;12.50;;
7195;SDS011;3639;51.308;5.624;2023-07-02T04:49:34;24.40;;;11.67;;
7195;SDS011;3639;51.308;5.624;2023-07-02T04:51:59;26.33;;;11.77;;
7195;SDS011;3639;51.308;5.624;2023-07-02T04:54:25;20.40;;;10.87;;
7195;SDS011;3639;51.308;5.624;2023-07-02T04:56:50;25.07;;;11.00;;
7195;SDS011;3639;51.308;5.624;2023-07-02T04:59:16;25.70;;;12.00;;
7195;SDS011;3639;51.308;5.624;2023-07-02T05:01:42;28.90;;;11.43;;
7195;SDS011;3639;51.308;5.624;2023-07-02T05:04:09;25.57;;;11.03;;
7195;SDS011;3639;51.308;5.624;2023-07-02T05:06:38;24.10;;;10.30;;
7195;SDS011;3639;51.308;5.624;2023-07-02T05:09:04;21.60;;;10.20;;
7195;SDS011;3639;51.308;5.624;2023-07-02T05:11:30;25.33;;;10.50;;
7195;SDS011;3639;51.308;5.624;2023-07-02T05:13:55;21.53;;;9.10;;
7195;SDS011;3639;51.308;5.624;2023-07-02T05:16:21;22.23;;;9.27;;
7195;SDS011;3639;51.308;5.624;2023-07-02T05:18:47;18.33;;;8.93;;
7195;SDS011;3639;51.308;5.624;2023-07-02T05:21:12;21.27;;;9.30;;
7195;SDS011;3639;51.308;5.624;2023-07-02T05:23:42;17.67;;;7.80;;
7195;SDS011;3639;51.308;5.624;2023-07-02T05:26:07;19.33;;;8.90;;
7195;SDS011;3639;51.308;5.624;2023-07-02T05:28:33;24.23;;;8.60;;
7195;SDS011;3639;51.308;5.624;2023-07-02T05:30:59;20.90;;;8.40;;
7195;SDS011;3639;51.308;5.624;2023-07-02T05:33:24;20.10;;;7.57;;
7195;SDS011;3639;51.308;5.624;2023-07-02T05:35:50;24.27;;;9.07;;
7195;SDS011;3639;51.308;5.624;2023-07-02T05:38:17;16.83;;;7.83;;
7195;SDS011;3639;51.308;5.624;2023-07-02T05:40:44;24.80;;;9.17;;
7195;SDS011;3639;51.308;5.624;2023-07-02T05:43:10;20.90;;;9.20;;
7195;SDS011;3639;51.308;5.624;2023-07-02T05:45:35;20.20;;;9.83;;
7195;SDS011;3639;51.308;5.624;2023-07-02T05:48:01;20.60;;;9.27;;
7195;SDS011;3639;51.308;5.624;2023-07-02T05:50:26;22.50;;;9.80;;
7195;SDS011;3639;51.308;5.624;2023-07-02T05:52:52;25.17;;;8.90;;
7195;SDS011;3639;51.308;5.624;2023-07-02T05:55:18;22.30;;;9.43;;
7195;SDS011;3639;51.308;5.624;2023-07-02T05:57:43;21.77;;;9.60;;
7195;SDS011;3639;51.308;5.624;2023-07-02T06:00:09;23.27;;;9.70;;
7195;SDS011;3639;51.308;5.624;2023-07-02T06:02:35;23.20;;;9.03;;
7195;SDS011;3639;51.308;5.624;2023-07-02T06:05:01;20.03;;;9.93;;
7195;SDS011;3639;51.308;5.624;2023-07-02T06:07:27;21.00;;;9.10;;
7195;SDS011;3639;51.308;5.624;2023-07-02T06:09:53;20.93;;;9.13;;
7195;SDS011;3639;51.308;5.624;2023-07-02T06:12:19;17.40;;;8.60;;
7195;SDS011;3639;51.308;5.624;2023-07-02T06:14:46;19.37;;;9.30;;
7195;SDS011;3639;51.308;5.624;2023-07-02T06:17:12;16.50;;;8.07;;
7195;SDS011;3639;51.308;5.624;2023-07-02T06:19:37;19.87;;;7.90;;
7195;SDS011;3639;51.308;5.624;2023-07-02T06:22:03;21.83;;;8.30;;
7195;SDS011;3639;51.308;5.624;2023-07-02T06:24:29;21.20;;;8.33;;
7195;SDS011;3639;51.308;5.624;2023-07-02T06:26:54;20.57;;;7.80;;
7195;SDS011;3639;51.308;5.624;2023-07-02T06:31:47;18.20;;;7.23;;
7195;SDS011;3639;51.308;5.624;2023-07-02T06:34:13;18.47;;;7.40;;
7195;SDS011;3639;51.308;5.624;2023-07-02T06:36:39;15.00;;;7.13;;
7195;SDS011;3639;51.308;5.624;2023-07-02T06:39:05;10.73;;;6.37;;
7195;SDS011;3639;51.308;5.624;2023-07-02T06:41:30;17.57;;;6.83;;
7195;SDS011;3639;51.308;5.624;2023-07-02T06:43:56;16.53;;;6.60;;
7195;SDS011;3639;51.308;5.624;2023-07-02T06:46:22;16.60;;;6.43;;
7195;SDS011;3639;51.308;5.624;2023-07-02T06:48:47;17.67;;;6.93;;
7195;SDS011;3639;51.308;5.624;2023-07-02T06:51:13;16.37;;;7.13;;
7195;SDS011;3639;51.308;5.624;2023-07-02T06:53:40;18.10;;;6.43;;
7195;SDS011;3639;51.308;5.624;2023-07-02T06:56:09;18.33;;;5.77;;
7195;SDS011;3639;51.308;5.624;2023-07-02T06:58:35;12.90;;;5.73;;
7195;SDS011;3639;51.308;5.624;2023-07-02T07:01:01;14.33;;;5.30;;
7195;SDS011;3639;51.308;5.624;2023-07-02T07:03:26;13.10;;;6.07;;
7195;SDS011;3639;51.308;5.624;2023-07-02T07:05:52;11.53;;;5.87;;
7195;SDS011;3639;51.308;5.624;2023-07-02T07:08:18;12.70;;;5.63;;
7195;SDS011;3639;51.308;5.624;2023-07-02T07:10:43;14.00;;;5.40;;
7195;SDS011;3639;51.308;5.624;2023-07-02T07:13:10;10.83;;;5.33;;
7195;SDS011;3639;51.308;5.624;2023-07-02T07:15:36;13.20;;;5.50;;
7195;SDS011;3639;51.308;5.624;2023-07-02T07:18:02;10.57;;;5.33;;
7195;SDS011;3639;51.308;5.624;2023-07-02T07:20:28;12.23;;;4.87;;
7195;SDS011;3639;51.308;5.624;2023-07-02T07:22:55;12.77;;;4.83;;
7195;SDS011;3639;51.308;5.624;2023-07-02T07:25:20;11.80;;;5.60;;
7195;SDS011;3639;51.308;5.624;2023-07-02T07:27:46;11.87;;;4.33;;
7195;SDS011;3639;51.308;5.624;2023-07-02T07:30:12;13.63;;;5.23;;
7195;SDS011;3639;51.308;5.624;2023-07-02T07:32:39;11.30;;;5.13;;
7195;SDS011;3639;51.308;5.624;2023-07-02T07:35:05;10.50;;;4.63;;
7195;SDS011;3639;51.308;5.624;2023-07-02T07:37:31;14.17;;;4.83;;
7195;SDS011;3639;51.308;5.624;2023-07-02T07:39:57;14.07;;;5.20;;
7195;SDS011;3639;51.308;5.624;2023-07-02T07:42:22;12.40;;;5.13;;
7195;SDS011;3639;51.308;5.624;2023-07-02T07:44:48;13.20;;;5.37;;
7195;SDS011;3639;51.308;5.624;2023-07-02T07:47:14;12.73;;;5.37;;
7195;SDS011;3639;51.308;5.624;2023-07-02T07:49:39;12.83;;;5.77;;
7195;SDS011;3639;51.308;5.624;2023-07-02T07:52:05;15.60;;;5.87;;
7195;SDS011;3639;51.308;5.624;2023-07-02T07:54:32;14.37;;;5.73;;
7195;SDS011;3639;51.308;5.624;2023-07-02T07:57:00;12.60;;;5.13;;
7195;SDS011;3639;51.308;5.624;2023-07-02T07:59:26;14.23;;;5.00;;
7195;SDS011;3639;51.308;5.624;2023-07-02T08:01:51;15.23;;;5.47;;
7195;SDS011;3639;51.308;5.624;2023-07-02T08:04:17;9.07;;;4.73;;
7195;SDS011;3639;51.308;5.624;2023-07-02T08:06:42;10.40;;;5.17;;
7195;SDS011;3639;51.308;5.624;2023-07-02T08:09:08;9.57;;;4.57;;
7195;SDS011;3639;51.308;5.624;2023-07-02T08:11:34;10.23;;;4.57;;
7195;SDS011;3639;51.308;5.624;2023-07-02T08:14:00;11.63;;;5.20;;
7195;SDS011;3639;51.308;5.624;2023-07-02T08:16:26;9.17;;;4.00;;
7195;SDS011;3639;51.308;5.624;2023-07-02T08:18:51;13.70;;;4.63;;
7195;SDS011;3639;51.308;5.624;2023-07-02T08:21:17;11.30;;;4.50;;
7195;SDS011;3639;51.308;5.624;2023-07-02T08:23:43;13.43;;;4.77;;
7195;SDS011;3639;51.308;5.624;2023-07-02T08:26:09;9.07;;;3.63;;
7195;SDS011;3639;51.308;5.624;2023-07-02T08:28:36;9.93;;;4.53;;
7195;SDS011;3639;51.308;5.624;2023-07-02T08:31:03;8.77;;;4.13;;
7195;SDS011;3639;51.308;5.624;2023-07-02T08:33:29;10.73;;;3.80;;
7195;SDS011;3639;51.308;5.624;2023-07-02T08:35:54;7.77;;;3.53;;
7195;SDS011;3639;51.308;5.624;2023-07-02T08:38:20;8.40;;;3.30;;
7195;SDS011;3639;51.308;5.624;2023-07-02T08:40:46;8.30;;;3.63;;
7195;SDS011;3639;51.308;5.624;2023-07-02T08:43:14;8.87;;;4.20;;
7195;SDS011;3639;51.308;5.624;2023-07-02T08:45:40;10.03;;;3.73;;
7195;SDS011;3639;51.308;5.624;2023-07-02T08:48:07;7.77;;;3.80;;
7195;SDS011;3639;51.308;5.624;2023-07-02T08:50:33;9.33;;;3.63;;
7195;SDS011;3639;51.308;5.624;2023-07-02T08:52:58;8.07;;;3.10;;
7195;SDS011;3639;51.308;5.624;2023-07-02T08:55:24;9.13;;;3.17;;
7195;SDS011;3639;51.308;5.624;2023-07-02T08:57:52;8.17;;;3.70;;
7195;SDS011;3639;51.308;5.624;2023-07-02T09:00:19;8.67;;;3.30;;
7195;SDS011;3639;51.308;5.624;2023-07-02T09:02:44;10.97;;;3.77;;
7195;SDS011;3639;51.308;5.624;2023-07-02T09:05:11;11.33;;;4.10;;
7195;SDS011;3639;51.308;5.624;2023-07-02T09:07:47;8.60;;;4.40;;
7195;SDS011;3639;51.308;5.624;2023-07-02T09:10:31;9.83;;;3.80;;
7195;SDS011;3639;51.308;5.624;2023-07-02T09:13:06;9.37;;;3.70;;
7195;SDS011;3639;51.308;5.624;2023-07-02T09:15:36;10.23;;;4.40;;
7195;SDS011;3639;51.308;5.624;2023-07-02T09:18:15;6.70;;;3.47;;
7195;SDS011;3639;51.308;5.624;2023-07-02T09:20:45;6.57;;;3.57;;
7195;SDS011;3639;51.308;5.624;2023-07-02T09:23:11;8.07;;;3.73;;
7195;SDS011;3639;51.308;5.624;2023-07-02T09:25:37;9.43;;;4.13;;
7195;SDS011;3639;51.308;5.624;2023-07-02T09:28:14;10.13;;;4.30;;
7195;SDS011;3639;51.308;5.624;2023-07-02T09:30:57;13.00;;;4.07;;
7195;SDS011;3639;51.308;5.624;2023-07-02T09:33:23;7.90;;;3.77;;
7195;SDS011;3639;51.308;5.624;2023-07-02T09:35:50;10.50;;;5.13;;
7195;SDS011;3639;51.308;5.624;2023-07-02T09:38:17;9.97;;;4.30;;
7195;SDS011;3639;51.308;5.624;2023-07-02T09:40:47;13.17;;;4.20;;
7195;SDS011;3639;51.308;5.624;2023-07-02T09:43:18;8.70;;;4.20;;
7195;SDS011;3639;51.308;5.624;2023-07-02T09:45:45;10.03;;;4.27;;
7195;SDS011;3639;51.308;5.624;2023-07-02T09:48:12;8.53;;;4.13;;
7195;SDS011;3639;51.308;5.624;2023-07-02T09:50:45;10.83;;;4.43;;
7195;SDS011;3639;51.308;5.624;2023-07-02T09:53:14;6.80;;;3.97;;
7195;SDS011;3639;51.308;5.624;2023-07-02T09:55:41;8.87;;;4.57;;
7195;SDS011;3639;51.308;5.624;2023-07-02T09:58:07;9.43;;;4.27;;
7195;SDS011;3639;51.308;5.624;2023-07-02T10:00:34;9.80;;;4.43;;
7195;SDS011;3639;51.308;5.624;2023-07-02T10:02:59;9.37;;;4.47;;
7195;SDS011;3639;51.308;5.624;2023-07-02T10:05:32;6.83;;;4.30;;
7195;SDS011;3639;51.308;5.624;2023-07-02T10:07:59;9.77;;;4.30;;
7195;SDS011;3639;51.308;5.624;2023-07-02T10:10:41;8.83;;;4.10;;
7195;SDS011;3639;51.308;5.624;2023-07-02T10:13:07;9.47;;;4.70;;
7195;SDS011;3639;51.308;5.624;2023-07-02T10:15:33;8.90;;;4.10;;
7195;SDS011;3639;51.308;5.624;2023-07-02T10:18:02;9.30;;;3.93;;
7195;SDS011;3639;51.308;5.624;2023-07-02T10:20:32;9.20;;;4.30;;
7195;SDS011;3639;51.308;5.624;2023-07-02T10:23:03;9.60;;;3.93;;
7195;SDS011;3639;51.308;5.624;2023-07-02T10:25:34;7.40;;;4.13;;
7195;SDS011;3639;51.308;5.624;2023-07-02T10:28:13;9.67;;;4.50;;
7195;SDS011;3639;51.308;5.624;2023-07-02T10:30:42;9.60;;;5.00;;
7195;SDS011;3639;51.308;5.624;2023-07-02T10:33:15;11.60;;;4.10;;
7195;SDS011;3639;51.308;5.624;2023-07-02T10:35:46;8.70;;;4.30;;
7195;SDS011;3639;51.308;5.624;2023-07-02T10:38:18;8.60;;;4.23;;
7195;SDS011;3639;51.308;5.624;2023-07-02T10:40:57;12.50;;;5.03;;
7195;SDS011;3639;51.308;5.624;2023-07-02T10:43:28;7.90;;;4.37;;
7195;SDS011;3639;51.308;5.624;2023-07-02T10:45:55;8.63;;;4.40;;
7195;SDS011;3639;51.308;5.624;2023-07-02T10:48:21;7.97;;;4.27;;
7195;SDS011;3639;51.308;5.624;2023-07-02T10:50:46;11.53;;;5.40;;
7195;SDS011;3639;51.308;5.624;2023-07-02T10:53:16;8.20;;;4.40;;
7195;SDS011;3639;51.308;5.624;2023-07-02T10:55:42;9.43;;;4.77;;
7195;SDS011;3639;51.308;5.624;2023-07-02T10:58:09;10.17;;;4.83;;
7195;SDS011;3639;51.308;5.624;2023-07-02T11:00:49;10.97;;;4.20;;
7195;SDS011;3639;51.308;5.624;2023-07-02T11:05:49;10.77;;;4.00;;
7195;SDS011;3639;51.308;5.624;2023-07-02T11:08:16;10.00;;;4.13;;
7195;SDS011;3639;51.308;5.624;2023-07-02T11:10:42;9.97;;;5.03;;
7195;SDS011;3639;51.308;5.624;2023-07-02T11:13:17;8.77;;;4.07;;
7195;SDS011;3639;51.308;5.624;2023-07-02T11:15:44;10.17;;;4.87;;
7195;SDS011;3639;51.308;5.624;2023-07-02T11:18:13;11.03;;;5.07;;
7195;SDS011;3639;51.308;5.624;2023-07-02T11:20:41;10.10;;;4.77;;
7195;SDS011;3639;51.308;5.624;2023-07-02T11:23:17;13.63;;;5.10;;
7195;SDS011;3639;51.308;5.624;2023-07-02T11:25:54;10.77;;;4.53;;
7195;SDS011;3639;51.308;5.624;2023-07-02T11:28:21;10.17;;;4.50;;
7195;SDS011;3639;51.308;5.624;2023-07-02T11:30:46;8.47;;;4.63;;
7195;SDS011;3639;51.308;5.624;2023-07-02T11:33:12;10.43;;;4.30;;
7195;SDS011;3639;51.308;5.624;2023-07-02T11:35:37;14.47;;;5.10;;
7195;SDS011;3639;51.308;5.624;2023-07-02T11:38:03;12.67;;;5.37;;
7195;SDS011;3639;51.308;5.624;2023-07-02T11:40:28;10.87;;;5.30;;
7195;SDS011;3639;51.308;5.624;2023-07-02T11:42:54;9.13;;;4.77;;
7195;SDS011;3639;51.308;5.624;2023-07-02T11:45:20;13.10;;;5.30;;
7195;SDS011;3639;51.308;5.624;2023-07-02T11:47:45;9.53;;;4.53;;
7195;SDS011;3639;51.308;5.624;2023-07-02T11:50:11;9.77;;;4.73;;
7195;SDS011;3639;51.308;5.624;2023-07-02T11:52:36;10.57;;;4.63;;
7195;SDS011;3639;51.308;5.624;2023-07-02T11:55:02;10.80;;;4.67;;
7195;SDS011;3639;51.308;5.624;2023-07-02T11:57:28;11.77;;;5.47;;
7195;SDS011;3639;51.308;5.624;2023-07-02T11:59:53;11.90;;;4.83;;
7195;SDS011;3639;51.308;5.624;2023-07-02T12:02:19;10.77;;;4.63;;
7195;SDS011;3639;51.308;5.624;2023-07-02T12:04:45;13.57;;;6.33;;
7195;SDS011;3639;51.308;5.624;2023-07-02T12:07:10;11.37;;;4.80;;
7195;SDS011;3639;51.308;5.624;2023-07-02T12:09:38;13.03;;;5.07;;
7195;SDS011;3639;51.308;5.624;2023-07-02T12:12:04;10.90;;;5.20;;
7195;SDS011;3639;51.308;5.624;2023-07-02T12:14:30;13.03;;;5.43;;
7195;SDS011;3639;51.308;5.624;2023-07-02T12:16:56;11.30;;;5.47;;
7195;SDS011;3639;51.308;5.624;2023-07-02T12:19:21;11.77;;;5.10;;
7195;SDS011;3639;51.308;5.624;2023-07-02T12:21:47;10.77;;;5.67;;
7195;SDS011;3639;51.308;5.624;2023-07-02T12:24:12;11.53;;;5.37;;
7195;SDS011;3639;51.308;5.624;2023-07-02T12:26:39;12.70;;;5.87;;
7195;SDS011;3639;51.308;5.624;2023-07-02T12:29:04;9.53;;;5.70;;
7195;SDS011;3639;51.308;5.624;2023-07-02T12:31:30;12.60;;;5.67;;
7195;SDS011;3639;51.308;5.624;2023-07-02T12:33:56;12.70;;;5.83;;
7195;SDS011;3639;51.308;5.624;2023-07-02T12:36:22;16.30;;;6.22;;
7195;SDS011;3639;51.308;5.624;2023-07-02T12:38:48;14.20;;;6.67;;
7195;SDS011;3639;51.308;5.624;2023-07-02T12:41:13;11.90;;;6.07;;
7195;SDS011;3639;51.308;5.624;2023-07-02T12:43:39;10.80;;;5.32;;
7195;SDS011;3639;51.308;5.624;2023-07-02T12:46:05;12.45;;;6.22;;
7195;SDS011;3639;51.308;5.624;2023-07-02T12:48:31;12.48;;;5.57;;
7195;SDS011;3639;51.308;5.624;2023-07-02T12:50:58;11.90;;;5.30;;
7195;SDS011;3639;51.308;5.624;2023-07-02T12:53:25;11.50;;;4.88;;
7195;SDS011;3639;51.308;5.624;2023-07-02T12:55:52;11.93;;;6.10;;
7195;SDS011;3639;51.308;5.624;2023-07-02T12:58:18;12.38;;;5.88;;
7195;SDS011;3639;51.308;5.624;2023-07-02T13:00:44;10.93;;;5.05;;
7195;SDS011;3639;51.308;5.624;2023-07-02T13:03:11;12.20;;;4.50;;
7195;SDS011;3639;51.308;5.624;2023-07-02T13:05:38;12.02;;;5.63;;
7195;SDS011;3639;51.308;5.624;2023-07-02T13:08:04;10.90;;;5.43;;
7195;SDS011;3639;51.308;5.624;2023-07-02T13:10:31;12.77;;;5.87;;
7195;SDS011;3639;51.308;5.624;2023-07-02T13:12:57;14.10;;;6.30;;
7195;SDS011;3639;51.308;5.624;2023-07-02T13:15:23;10.60;;;5.17;;
7195;SDS011;3639;51.308;5.624;2023-07-02T13:17:49;12.70;;;5.28;;
7195;SDS011;3639;51.308;5.624;2023-07-02T13:20:14;8.77;;;4.30;;
7195;SDS011;3639;51.308;5.624;2023-07-02T13:22:40;9.47;;;4.47;;
7195;SDS011;3639;51.308;5.624;2023-07-02T13:25:06;12.00;;;4.50;;
7195;SDS011;3639;51.308;5.624;2023-07-02T13:27:32;10.17;;;4.70;;
7195;SDS011;3639;51.308;5.624;2023-07-02T13:29:58;9.87;;;5.23;;
7195;SDS011;3639;51.308;5.624;2023-07-02T13:32:24;11.33;;;4.77;;
7195;SDS011;3639;51.308;5.624;2023-07-02T13:34:50;10.57;;;4.70;;
7195;SDS011;3639;51.308;5.624;2023-07-02T13:37:16;14.13;;;5.13;;
7195;SDS011;3639;51.308;5.624;2023-07-02T13:39:45;9.10;;;4.40;;
7195;SDS011;3639;51.308;5.624;2023-07-02T13:42:11;11.83;;;4.90;;
7195;SDS011;3639;51.308;5.624;2023-07-02T13:44:37;11.67;;;5.20;;
7195;SDS011;3639;51.308;5.624;2023-07-02T13:47:02;8.85;;;4.72;;
7195;SDS011;3639;51.308;5.624;2023-07-02T13:49:28;10.02;;;4.47;;
7195;SDS011;3639;51.308;5.624;2023-07-02T13:51:55;10.60;;;4.70;;
7195;SDS011;3639;51.308;5.624;2023-07-02T13:54:21;12.27;;;4.30;;
7195;SDS011;3639;51.308;5.624;2023-07-02T13:56:47;7.82;;;4.32;;
7195;SDS011;3639;51.308;5.624;2023-07-02T13:59:13;9.10;;;4.57;;
7195;SDS011;3639;51.308;5.624;2023-07-02T14:01:40;11.02;;;4.88;;
7195;SDS011;3639;51.308;5.624;2023-07-02T14:04:06;9.10;;;4.72;;
7195;SDS011;3639;51.308;5.624;2023-07-02T14:06:31;12.45;;;4.13;;
7195;SDS011;3639;51.308;5.624;2023-07-02T14:08:57;8.88;;;4.05;;
7195;SDS011;3639;51.308;5.624;2023-07-02T14:11:23;11.30;;;4.25;;
7195;SDS011;3639;51.308;5.624;2023-07-02T14:13:49;8.40;;;4.45;;
7195;SDS011;3639;51.308;5.624;2023-07-02T14:16:15;11.32;;;4.05;;
7195;SDS011;3639;51.308;5.624;2023-07-02T14:18:41;8.90;;;4.23;;
7195;SDS011;3639;51.308;5.624;2023-07-02T14:21:07;8.90;;;4.15;;
7195;SDS011;3639;51.308;5.624;2023-07-02T14:23:32;10.60;;;3.83;;
7195;SDS011;3639;51.308;5.624;2023-07-02T14:25:58;12.90;;;4.20;;
7195;SDS011;3639;51.308;5.624;2023-07-02T14:28:24;11.10;;;4.10;;
7195;SDS011;3639;51.308;5.624;2023-07-02T14:30:58;9.93;;;3.75;;
7195;SDS011;3639;51.308;5.624;2023-07-02T14:33:25;6.22;;;3.30;;
7195;SDS011;3639;51.308;5.624;2023-07-02T14:35:52;9.10;;;3.33;;
7195;SDS011;3639;51.308;5.624;2023-07-02T14:38:17;8.40;;;3.40;;
7195;SDS011;3639;51.308;5.624;2023-07-02T14:40:43;8.68;;;4.20;;
7195;SDS011;3639;51.308;5.624;2023-07-02T14:43:09;8.93;;;4.37;;
7195;SDS011;3639;51.308;5.624;2023-07-02T14:45:34;9.43;;;4.05;;
7195;SDS011;3639;51.308;5.624;2023-07-02T14:48:00;11.57;;;4.03;;
7195;SDS011;3639;51.308;5.624;2023-07-02T14:50:26;10.83;;;3.83;;
7195;SDS011;3639;51.308;5.624;2023-07-02T14:52:52;11.13;;;4.43;;
7195;SDS011;3639;51.308;5.624;2023-07-02T14:55:17;7.30;;;4.10;;
7195;SDS011;3639;51.308;5.624;2023-07-02T14:57:43;7.82;;;3.70;;
7195;SDS011;3639;51.308;5.624;2023-07-02T15:00:09;7.57;;;4.07;;
7195;SDS011;3639;51.308;5.624;2023-07-02T15:02:35;11.35;;;4.38;;
7195;SDS011;3639;51.308;5.624;2023-07-02T15:05:01;8.90;;;3.80;;